createdAt,value
2022-12-07T00:01:28.265Z,94603.63
2022-12-07T00:04:02.471Z,94607.00
2022-12-07T00:06:29.190Z,94598.69
2022-12-07T00:08:55.881Z,94599.09
2022-12-07T00:11:23.746Z,94593.38
2022-12-07T00:13:56.468Z,94567.84
2022-12-07T00:16:25.464Z,94604.97
2022-12-07T00:18:52.175Z,94605.44
2022-12-07T00:21:27.324Z,94589.22
2022-12-07T00:23:55.470Z,94596.38
2022-12-07T00:26:26.553Z,94578.88
2022-12-07T00:28:58.997Z,94575.69
2022-12-07T00:31:30.683Z,94563.66
2022-12-07T00:33:59.322Z,94578.97
2022-12-07T00:36:27.718Z,94586.03
2022-12-07T00:39:00.328Z,94576.88
2022-12-07T00:41:28.692Z,94586.81
2022-12-07T00:43:56.278Z,94570.25
2022-12-07T00:46:24.456Z,94580.41
2022-12-07T00:48:52.733Z,94579.09
2022-12-07T00:51:22.341Z,94557.00
2022-12-07T00:53:49.605Z,94570.56
2022-12-07T00:56:30.295Z,94582.63
2022-12-07T00:59:05.084Z,94580.03
2022-12-07T01:01:36.151Z,94584.97
2022-12-07T01:04:03.887Z,94588.06
2022-12-07T01:06:31.471Z,94591.75
2022-12-07T01:08:58.876Z,94570.78
2022-12-07T01:11:29.531Z,94578.47
2022-12-07T01:13:57.971Z,94581.97
2022-12-07T01:16:26.601Z,94591.59
2022-12-07T01:18:55.629Z,94594.91
2022-12-07T01:21:25.242Z,94602.03
2022-12-07T01:23:52.849Z,94600.28
2022-12-07T01:26:22.508Z,94602.44
2022-12-07T01:28:50.051Z,94600.31
2022-12-07T01:31:19.921Z,94600.84
2022-12-07T01:33:50.089Z,94609.94
2022-12-07T01:36:35.255Z,94604.22
2022-12-07T01:39:06.423Z,94595.13
2022-12-07T01:41:37.806Z,94582.88
2022-12-07T01:44:23.092Z,94596.97
2022-12-07T01:47:01.785Z,94598.63
2022-12-07T01:49:31.479Z,94603.53
2022-12-07T01:52:05.064Z,94599.53
2022-12-07T01:54:34.395Z,94578.38
2022-12-07T01:57:02.244Z,94597.69
2022-12-07T01:59:29.479Z,94591.31
2022-12-07T02:01:57.101Z,94589.97
2022-12-07T02:04:24.876Z,94587.16
2022-12-07T02:06:53.185Z,94593.38
2022-12-07T02:09:20.289Z,94591.22
2022-12-07T02:11:47.147Z,94600.25
2022-12-07T02:14:13.911Z,94594.94
2022-12-07T02:16:59.087Z,94590.50
2022-12-07T02:19:44.051Z,94591.22
2022-12-07T02:22:49.916Z,94591.47
2022-12-07T02:25:35.495Z,94586.31
2022-12-07T02:28:20.289Z,94592.88
2022-12-07T02:30:52.002Z,94593.72
2022-12-07T02:33:24.866Z,94571.69
2022-12-07T02:36:03.850Z,94580.81
2022-12-07T02:38:48.793Z,94570.25
2022-12-07T02:41:30.253Z,94565.91
2022-12-07T02:44:00.949Z,94538.72
2022-12-07T02:46:52.196Z,94557.69
2022-12-07T02:49:20.016Z,94564.50
2022-12-07T02:51:47.684Z,94560.53
2022-12-07T02:54:20.408Z,94564.31
2022-12-07T02:56:50.550Z,94560.69
2022-12-07T03:00:09.561Z,94572.69
2022-12-07T03:03:00.329Z,94578.06
2022-12-07T03:05:33.003Z,94579.75
2022-12-07T03:08:16.373Z,94572.63
2022-12-07T03:11:05.186Z,94575.84
2022-12-07T03:13:35.837Z,94577.97
2022-12-07T03:16:21.752Z,94576.84
2022-12-07T03:18:58.535Z,94574.34
2022-12-07T03:21:34.205Z,94578.66
2022-12-07T03:24:07.348Z,94578.66
2022-12-07T03:26:41.844Z,94590.16
2022-12-07T03:29:14.628Z,94589.00
2022-12-07T03:31:44.128Z,94570.38
2022-12-07T03:34:26.161Z,94583.47
2022-12-07T03:37:19.454Z,94581.59
2022-12-07T03:40:07.527Z,94559.25
2022-12-07T03:42:36.040Z,94567.94
2022-12-07T03:45:05.929Z,94566.19
2022-12-07T03:47:54.378Z,94572.94
2022-12-07T03:50:46.070Z,94570.00
2022-12-07T03:53:19.556Z,94552.16
2022-12-07T03:55:49.642Z,94548.38
2022-12-07T03:58:20.618Z,94550.59
2022-12-07T04:00:48.192Z,94551.44
2022-12-07T04:03:15.020Z,94564.22
2022-12-07T04:05:42.041Z,94569.13
2022-12-07T04:08:09.327Z,94565.44
2022-12-07T04:10:36.292Z,94567.56
2022-12-07T04:13:03.100Z,94562.78
2022-12-07T04:15:29.858Z,94564.53
2022-12-07T04:17:56.581Z,94559.06
2022-12-07T04:20:23.275Z,94573.41
2022-12-07T04:22:50.845Z,94569.81
2022-12-07T04:25:17.959Z,94571.75
2022-12-07T04:27:44.620Z,94564.69
2022-12-07T04:30:11.591Z,94562.44
2022-12-07T04:32:38.252Z,94548.97
2022-12-07T04:35:06.406Z,94561.28
2022-12-07T04:37:33.225Z,94559.97
2022-12-07T04:40:00.258Z,94567.19
2022-12-07T04:42:27.417Z,94564.84
2022-12-07T04:44:54.558Z,94571.16
2022-12-07T04:47:21.597Z,94561.84
2022-12-07T04:49:48.338Z,94569.78
2022-12-07T04:52:15.090Z,94572.63
2022-12-07T04:54:41.780Z,94560.59
2022-12-07T04:57:08.708Z,94563.28
2022-12-07T04:59:38.853Z,94556.09
2022-12-07T05:02:09.464Z,94569.69
2022-12-07T05:04:36.899Z,94569.13
2022-12-07T05:07:03.552Z,94560.38
2022-12-07T05:09:30.272Z,94562.16
2022-12-07T05:11:56.951Z,94566.19
2022-12-07T05:14:23.793Z,94563.41
2022-12-07T05:16:51.898Z,94563.66
2022-12-07T05:19:20.545Z,94553.75
2022-12-07T05:21:47.428Z,94557.47
2022-12-07T05:24:15.901Z,94549.81
2022-12-07T05:26:43.152Z,94547.53
2022-12-07T05:29:13.412Z,94551.53
2022-12-07T05:31:40.313Z,94541.38
2022-12-07T05:34:07.092Z,94546.38
2022-12-07T05:36:33.809Z,94544.66
2022-12-07T05:39:01.000Z,94545.63
2022-12-07T05:41:46.412Z,94545.19
2022-12-07T05:44:13.153Z,94541.13
2022-12-07T05:46:40.284Z,94543.38
2022-12-07T05:49:07.157Z,94550.50
2022-12-07T05:51:33.929Z,94532.50
2022-12-07T05:54:00.713Z,94531.44
2022-12-07T05:56:28.149Z,94524.06
2022-12-07T05:59:14.197Z,94522.81
2022-12-07T06:01:41.558Z,94518.97
2022-12-07T06:04:09.163Z,94527.31
2022-12-07T06:06:36.459Z,94512.81
2022-12-07T06:09:04.452Z,94523.63
2022-12-07T06:11:49.698Z,94531.63
2022-12-07T06:14:16.382Z,94538.00
2022-12-07T06:16:43.189Z,94538.47
2022-12-07T06:19:10.310Z,94514.66
2022-12-07T06:21:37.579Z,94542.78
2022-12-07T06:24:04.498Z,94521.97
2022-12-07T06:26:31.137Z,94508.06
2022-12-07T06:28:57.874Z,94531.69
2022-12-07T06:31:24.570Z,94547.88
2022-12-07T06:33:52.394Z,94554.88
2022-12-07T06:36:23.968Z,94542.53
2022-12-07T06:38:54.257Z,94554.81
2022-12-07T06:41:22.278Z,94544.94
2022-12-07T06:43:55.607Z,94549.56
2022-12-07T06:46:23.011Z,94550.28
2022-12-07T06:48:49.947Z,94546.25
2022-12-07T06:51:17.103Z,94569.41
2022-12-07T06:53:43.802Z,94568.66
2022-12-07T06:56:10.752Z,94577.13
2022-12-07T06:58:37.884Z,94587.59
2022-12-07T07:01:13.148Z,94565.38
2022-12-07T07:03:40.637Z,94572.66
2022-12-07T07:06:08.810Z,94586.78
2022-12-07T07:08:36.929Z,94559.41
2022-12-07T07:11:04.444Z,94589.28
2022-12-07T07:13:31.317Z,94594.31
2022-12-07T07:15:58.048Z,94591.38
2022-12-07T07:18:26.002Z,94590.59
2022-12-07T07:20:53.948Z,94582.50
2022-12-07T07:23:22.973Z,94583.44
2022-12-07T07:25:49.965Z,94590.09
2022-12-07T07:28:17.803Z,94604.09
2022-12-07T07:30:44.636Z,94600.19
2022-12-07T07:33:12.168Z,94609.31
2022-12-07T07:35:40.323Z,94603.63
2022-12-07T07:38:08.948Z,94606.34
2022-12-07T07:40:37.059Z,94598.00
2022-12-07T07:43:04.330Z,94601.94
2022-12-07T07:45:31.206Z,94601.75
2022-12-07T07:47:57.945Z,94574.53
2022-12-07T07:50:25.075Z,94603.63
2022-12-07T07:52:53.502Z,94607.88
2022-12-07T07:55:20.439Z,94602.59
2022-12-07T07:57:52.736Z,94592.50
2022-12-07T08:00:22.542Z,94616.09
2022-12-07T08:02:49.725Z,94620.94
2022-12-07T08:05:16.952Z,94608.38
2022-12-07T08:07:44.479Z,94613.59
2022-12-07T08:10:13.078Z,94623.22
2022-12-07T08:13:01.548Z,94617.44
2022-12-07T08:15:31.403Z,94612.47
2022-12-07T08:17:58.651Z,94588.84
2022-12-07T08:20:25.799Z,94599.91
2022-12-07T08:22:53.745Z,94609.53
2022-12-07T08:25:20.570Z,94616.53
2022-12-07T08:27:47.324Z,94614.38
2022-12-07T08:30:14.423Z,94603.19
2022-12-07T08:32:41.683Z,94612.66
2022-12-07T08:35:10.679Z,94613.06
2022-12-07T08:37:39.385Z,94623.84
2022-12-07T08:40:08.916Z,94629.72
2022-12-07T08:42:41.027Z,94611.56
2022-12-07T08:45:12.303Z,94612.63
2022-12-07T08:47:44.625Z,94616.69
2022-12-07T08:50:13.476Z,94611.56
2022-12-07T08:52:42.712Z,94614.06
2022-12-07T08:55:12.486Z,94621.84
2022-12-07T08:57:40.798Z,94603.13
2022-12-07T09:00:10.232Z,94610.44
2022-12-07T09:02:38.017Z,94588.81
2022-12-07T09:05:05.588Z,94568.06
2022-12-07T09:07:34.780Z,94592.97
2022-12-07T09:10:02.355Z,94570.94
2022-12-07T09:12:29.389Z,94554.47
2022-12-07T09:14:56.329Z,94545.28
2022-12-07T09:17:24.727Z,94546.00
2022-12-07T09:19:51.478Z,94540.56
2022-12-07T09:22:18.318Z,94566.91
2022-12-07T09:24:46.549Z,94581.00
2022-12-07T09:27:14.093Z,94549.00
2022-12-07T09:29:40.908Z,94544.47
2022-12-07T09:32:11.865Z,94553.47
2022-12-07T09:34:40.214Z,94564.47
2022-12-07T09:37:08.292Z,94571.84
2022-12-07T09:39:35.699Z,94574.47
2022-12-07T09:42:05.589Z,94560.28
2022-12-07T09:44:32.857Z,94530.19
2022-12-07T09:47:00.367Z,94521.69
2022-12-07T09:49:31.745Z,94513.56
2022-12-07T09:52:02.453Z,94535.09
2022-12-07T09:54:30.673Z,94539.44
2022-12-07T09:56:57.974Z,94550.41
2022-12-07T09:59:26.420Z,94526.22
2022-12-07T10:01:53.959Z,94526.47
2022-12-07T10:04:28.115Z,94498.00
2022-12-07T10:06:55.619Z,94533.13
2022-12-07T10:09:24.080Z,94506.22
2022-12-07T10:12:10.370Z,94513.00
2022-12-07T10:15:06.891Z,94513.41
2022-12-07T10:17:42.126Z,94496.34
2022-12-07T10:20:29.553Z,94466.03
2022-12-07T10:23:05.704Z,94509.25
2022-12-07T10:25:37.365Z,94497.88
2022-12-07T10:28:16.808Z,94530.63
2022-12-07T10:30:52.785Z,94555.31
2022-12-07T10:33:55.471Z,94527.91
2022-12-07T10:36:39.819Z,94514.13
2022-12-07T10:39:16.454Z,94520.28
2022-12-07T10:41:57.881Z,94529.41
2022-12-07T10:44:33.421Z,94551.34
2022-12-07T10:47:34.337Z,94553.41
2022-12-07T10:50:19.710Z,94541.28
2022-12-07T10:52:54.959Z,94540.00
2022-12-07T10:55:40.876Z,94534.72
2022-12-07T10:58:39.576Z,94543.91
2022-12-07T11:01:40.988Z,94540.31
2022-12-07T11:04:36.884Z,94539.47
2022-12-07T11:07:33.957Z,94557.91
2022-12-07T11:10:18.956Z,94542.09
2022-12-07T11:13:00.028Z,94553.56
2022-12-07T11:16:14.824Z,94516.94
2022-12-07T11:18:52.264Z,94516.56
2022-12-07T11:21:28.155Z,94519.34
2022-12-07T11:24:02.243Z,94515.38
2022-12-07T11:27:07.401Z,94517.50
2022-12-07T11:29:42.319Z,94506.50
2022-12-07T11:32:20.720Z,94517.53
2022-12-07T11:35:25.304Z,94502.19
2022-12-07T11:37:59.345Z,94493.88
2022-12-07T11:40:41.034Z,94500.41
2022-12-07T11:43:26.911Z,94492.38
2022-12-07T11:46:05.624Z,94494.28
2022-12-07T11:48:42.765Z,94490.28
2022-12-07T11:51:13.089Z,94502.91
2022-12-07T11:53:48.757Z,94489.47
2022-12-07T11:56:20.277Z,94474.66
2022-12-07T11:58:50.266Z,94489.59
2022-12-07T12:01:34.312Z,94487.56
2022-12-07T12:04:35.212Z,94469.34
2022-12-07T12:10:07.596Z,94468.53
2022-12-07T12:16:15.526Z,94462.31
2022-12-07T12:18:42.302Z,94477.81
2022-12-07T12:21:13.334Z,94465.91
2022-12-07T12:23:49.576Z,94440.44
2022-12-07T12:26:27.942Z,94448.47
2022-12-07T12:29:20.635Z,94460.03
2022-12-07T12:32:06.043Z,94456.88
2022-12-07T12:34:46.788Z,94457.53
2022-12-07T12:37:35.146Z,94460.44
2022-12-07T12:40:17.238Z,94432.75
2022-12-07T12:42:49.844Z,94439.91
2022-12-07T12:45:21.705Z,94468.53
2022-12-07T12:47:58.572Z,94448.50
2022-12-07T12:50:35.844Z,94464.31
2022-12-07T12:53:17.569Z,94476.03
2022-12-07T12:55:44.704Z,94473.56
2022-12-07T12:58:20.638Z,94455.53
2022-12-07T13:00:50.764Z,94458.16
2022-12-07T13:03:29.762Z,94458.28
2022-12-07T13:06:29.965Z,94447.59
2022-12-07T13:09:00.870Z,94454.66
2022-12-07T13:11:43.148Z,94449.22
2022-12-07T13:14:38.404Z,94451.50
2022-12-07T13:17:05.265Z,94445.56
2022-12-07T13:19:44.039Z,94458.09
2022-12-07T13:22:33.459Z,94467.06
2022-12-07T13:25:21.995Z,94456.91
2022-12-07T13:28:03.419Z,94433.09
2022-12-07T13:30:31.687Z,94462.38
2022-12-07T13:33:00.420Z,94444.84
2022-12-07T13:35:38.650Z,94453.06
2022-12-07T13:38:16.362Z,94441.94
2022-12-07T13:40:43.197Z,94442.25
2022-12-07T13:43:16.689Z,94434.94
2022-12-07T13:45:49.426Z,94434.84
2022-12-07T13:48:28.023Z,94428.69
2022-12-07T13:53:27.904Z,94438.88
2022-12-07T13:55:56.962Z,94441.69
2022-12-07T13:58:26.683Z,94450.06
2022-12-07T14:00:53.720Z,94427.78
2022-12-07T14:03:28.689Z,94430.13
2022-12-07T14:06:29.373Z,94425.13
2022-12-07T14:09:21.253Z,94438.50
2022-12-07T14:11:50.297Z,94447.69
2022-12-07T14:14:37.312Z,94458.50
2022-12-07T14:17:14.407Z,94458.78
2022-12-07T14:19:56.765Z,94448.09
2022-12-07T14:22:36.239Z,94451.75
2022-12-07T14:25:22.498Z,94443.38
2022-12-07T14:27:53.973Z,94443.63
2022-12-07T14:30:21.014Z,94424.00
2022-12-07T14:32:51.874Z,94424.78
2022-12-07T14:35:19.341Z,94444.09
2022-12-07T14:37:49.063Z,94431.66
2022-12-07T14:40:19.042Z,94448.97
2022-12-07T14:42:48.263Z,94420.38
2022-12-07T14:45:18.226Z,94415.22
2022-12-07T14:50:37.861Z,94411.78
2022-12-07T14:53:25.231Z,94426.72
2022-12-07T14:55:53.668Z,94430.19
2022-12-07T14:58:21.512Z,94445.78
2022-12-07T15:00:48.624Z,94432.56
2022-12-07T15:03:15.577Z,94439.75
2022-12-07T15:05:43.578Z,94433.34
2022-12-07T15:08:13.397Z,94429.59
2022-12-07T15:10:42.833Z,94430.03
2022-12-07T15:13:28.390Z,94423.97
2022-12-07T15:15:57.423Z,94430.00
2022-12-07T15:18:24.829Z,94422.16
2022-12-07T15:20:52.501Z,94417.56
2022-12-07T15:23:19.241Z,94424.44
2022-12-07T15:25:48.554Z,94423.22
2022-12-07T15:28:16.457Z,94416.53
2022-12-07T15:30:45.335Z,94427.81
2022-12-07T15:33:14.522Z,94421.84
2022-12-07T15:35:46.472Z,94423.34
2022-12-07T15:38:14.415Z,94418.16
2022-12-07T15:40:42.978Z,94413.19
2022-12-07T15:43:30.611Z,94414.00
2022-12-07T15:46:00.439Z,94419.66
2022-12-07T15:48:29.667Z,94433.31
2022-12-07T15:51:07.736Z,94428.28
2022-12-07T15:53:35.096Z,94428.41
2022-12-07T15:56:02.875Z,94420.56
2022-12-07T15:58:29.571Z,94418.19
2022-12-07T16:00:56.282Z,94423.63
2022-12-07T16:03:24.874Z,94422.63
2022-12-07T16:05:53.016Z,94422.56
2022-12-07T16:08:20.314Z,94427.63
2022-12-07T16:10:47.176Z,94418.66
2022-12-07T16:13:14.726Z,94419.44
2022-12-07T16:15:44.240Z,94430.75
2022-12-07T16:18:11.242Z,94419.88
2022-12-07T16:20:37.999Z,94434.91
2022-12-07T16:23:04.863Z,94433.50
2022-12-07T16:25:32.122Z,94436.91
2022-12-07T16:27:59.968Z,94440.22
2022-12-07T16:30:27.545Z,94427.50
2022-12-07T16:33:00.804Z,94429.72
2022-12-07T16:35:29.830Z,94430.91
2022-12-07T16:37:58.098Z,94434.31
2022-12-07T16:40:24.986Z,94387.00
2022-12-07T16:42:51.853Z,94414.19
2022-12-07T16:45:20.921Z,94412.78
2022-12-07T16:47:48.102Z,94414.47
2022-12-07T16:50:14.998Z,94423.97
2022-12-07T16:52:41.723Z,94427.63
2022-12-07T16:55:09.953Z,94410.63
2022-12-07T16:57:36.747Z,94411.91
2022-12-07T17:00:05.152Z,94418.75
2022-12-07T17:02:31.983Z,94418.38
2022-12-07T17:05:00.551Z,94414.63
2022-12-07T17:07:28.970Z,94413.31
2022-12-07T17:09:55.712Z,94416.03
2022-12-07T17:12:22.439Z,94408.91
2022-12-07T17:15:07.784Z,94406.84
2022-12-07T17:17:34.504Z,94414.78
2022-12-07T17:20:01.417Z,94416.19
2022-12-07T17:22:28.811Z,94411.00
2022-12-07T17:24:55.649Z,94403.34
2022-12-07T17:27:22.429Z,94411.59
2022-12-07T17:29:49.239Z,94409.34
2022-12-07T17:32:16.054Z,94413.63
2022-12-07T17:34:44.119Z,94412.75
2022-12-07T17:37:10.787Z,94410.56
2022-12-07T17:39:37.636Z,94409.66
2022-12-07T17:42:23.311Z,94410.75
2022-12-07T17:44:50.056Z,94422.34
2022-12-07T17:47:18.814Z,94403.00
2022-12-07T17:49:47.155Z,94401.19
2022-12-07T17:52:34.159Z,94404.19
2022-12-07T17:55:01.249Z,94395.84
2022-12-07T17:57:29.289Z,94386.41
2022-12-07T17:59:56.176Z,94393.84
2022-12-07T18:02:22.914Z,94389.84
2022-12-07T18:04:49.887Z,94388.47
2022-12-07T18:07:17.126Z,94403.44
2022-12-07T18:09:45.139Z,94393.78
2022-12-07T18:12:11.898Z,94401.41
2022-12-07T18:14:38.604Z,94392.75
2022-12-07T18:17:05.668Z,94387.78
2022-12-07T18:19:33.442Z,94396.47
2022-12-07T18:22:01.496Z,94390.66
2022-12-07T18:24:36.248Z,94383.59
2022-12-07T18:27:04.780Z,94380.88
2022-12-07T18:29:31.501Z,94378.97
2022-12-07T18:31:59.698Z,94391.63
2022-12-07T18:34:29.682Z,94383.44
2022-12-07T18:36:56.486Z,94392.94
2022-12-07T18:39:25.215Z,94395.56
2022-12-07T18:41:55.891Z,94395.97
2022-12-07T18:44:22.803Z,94398.91
2022-12-07T18:46:49.946Z,94396.13
2022-12-07T18:49:16.715Z,94392.81
2022-12-07T18:51:45.696Z,94392.16
2022-12-07T18:54:12.458Z,94385.69
2022-12-07T18:56:39.192Z,94390.91
2022-12-07T18:59:25.521Z,94383.31
2022-12-07T19:01:54.839Z,94373.03
2022-12-07T19:04:22.210Z,94386.63
2022-12-07T19:06:49.760Z,94382.09
2022-12-07T19:09:17.811Z,94381.28
2022-12-07T19:11:52.256Z,94386.47
2022-12-07T19:14:27.084Z,94384.94
2022-12-07T19:16:56.410Z,94379.22
2022-12-07T19:19:29.705Z,94381.28
2022-12-07T19:21:56.466Z,94370.47
2022-12-07T19:24:24.054Z,94375.63
2022-12-07T19:26:52.201Z,94362.94
2022-12-07T19:29:19.455Z,94365.81
2022-12-07T19:31:46.411Z,94379.69
2022-12-07T19:34:16.270Z,94385.53
2022-12-07T19:36:44.564Z,94384.59
2022-12-07T19:39:15.093Z,94382.16
2022-12-07T19:41:44.913Z,94380.00
2022-12-07T19:44:16.264Z,94374.38
2022-12-07T19:46:46.742Z,94371.47
2022-12-07T19:49:16.235Z,94367.97
2022-12-07T19:51:48.864Z,94376.94
2022-12-07T19:54:19.314Z,94375.88
2022-12-07T19:56:47.228Z,94361.66
2022-12-07T19:59:16.976Z,94362.13
2022-12-07T20:01:45.064Z,94359.00
2022-12-07T20:04:16.579Z,94342.63
2022-12-07T20:06:45.344Z,94354.69
2022-12-07T20:09:12.420Z,94354.75
2022-12-07T20:11:58.039Z,94371.28
2022-12-07T20:14:25.050Z,94363.03
2022-12-07T20:16:52.228Z,94360.41
2022-12-07T20:19:19.510Z,94363.06
2022-12-07T20:21:47.332Z,94364.47
2022-12-07T20:24:18.563Z,94350.09
2022-12-07T20:26:48.788Z,94359.25
2022-12-07T20:29:18.926Z,94350.00
2022-12-07T20:31:48.206Z,94349.91
2022-12-07T20:34:16.176Z,94359.00
2022-12-07T20:36:43.276Z,94360.69
2022-12-07T20:39:10.453Z,94368.13
2022-12-07T20:41:56.779Z,94370.91
2022-12-07T20:44:23.641Z,94364.19
2022-12-07T20:46:50.602Z,94360.03
2022-12-07T20:49:18.583Z,94365.47
2022-12-07T20:51:46.913Z,94356.00
2022-12-07T20:54:15.024Z,94357.69
2022-12-07T20:56:42.011Z,94344.19
2022-12-07T20:59:13.851Z,94360.44
2022-12-07T21:01:42.754Z,94355.69
2022-12-07T21:04:12.122Z,94351.94
2022-12-07T21:06:39.281Z,94336.16
2022-12-07T21:09:06.452Z,94334.53
2022-12-07T21:11:33.210Z,94335.31
2022-12-07T21:14:01.532Z,94331.91
2022-12-07T21:16:31.616Z,94337.69
2022-12-07T21:19:04.263Z,94335.25
2022-12-07T21:21:32.999Z,94329.81
2022-12-07T21:24:03.011Z,94331.72
2022-12-07T21:26:36.417Z,94323.00
2022-12-07T21:29:07.506Z,94324.19
2022-12-07T21:31:35.304Z,94322.75
2022-12-07T21:34:05.504Z,94309.44
2022-12-07T21:36:32.777Z,94317.28
2022-12-07T21:39:00.651Z,94319.78
2022-12-07T21:41:34.443Z,94322.03
2022-12-07T21:44:05.420Z,94321.78
2022-12-07T21:46:34.608Z,94307.13
2022-12-07T21:49:05.776Z,94310.78
2022-12-07T21:51:32.954Z,94303.38
2022-12-07T21:54:01.987Z,94279.78
2022-12-07T21:56:32.621Z,94292.13
2022-12-07T21:59:02.251Z,94290.97
2022-12-07T22:01:35.810Z,94295.78
2022-12-07T22:04:04.531Z,94304.72
2022-12-07T22:06:33.847Z,94304.00
2022-12-07T22:09:02.458Z,94319.06
2022-12-07T22:11:29.569Z,94321.16
2022-12-07T22:14:17.032Z,94327.56
2022-12-07T22:16:43.848Z,94322.63
2022-12-07T22:19:10.700Z,94313.53
2022-12-07T22:21:37.540Z,94315.28
2022-12-07T22:24:05.441Z,94326.09
2022-12-07T22:26:32.645Z,94312.03
2022-12-07T22:28:59.502Z,94312.34
2022-12-07T22:31:26.554Z,94296.34
2022-12-07T22:33:53.414Z,94303.75
2022-12-07T22:36:20.735Z,94291.03
2022-12-07T22:38:48.034Z,94293.84
2022-12-07T22:41:26.934Z,94301.00
2022-12-07T22:43:54.591Z,94296.06
2022-12-07T22:46:22.260Z,94291.22
2022-12-07T22:48:49.766Z,94295.53
2022-12-07T22:51:26.941Z,94297.44
2022-12-07T22:53:54.836Z,94298.06
2022-12-07T22:56:22.801Z,94308.63
2022-12-07T22:58:50.219Z,94300.03
2022-12-07T23:01:19.008Z,94298.03
2022-12-07T23:03:46.562Z,94295.38
2022-12-07T23:06:23.196Z,94294.88
2022-12-07T23:08:50.309Z,94295.00
2022-12-07T23:11:42.647Z,94291.16
2022-12-07T23:14:12.633Z,94286.81
2022-12-07T23:16:40.167Z,94285.41
2022-12-07T23:19:07.114Z,94287.06
2022-12-07T23:21:34.201Z,94278.63
2022-12-07T23:24:01.600Z,94275.16
2022-12-07T23:26:28.565Z,94259.88
2022-12-07T23:28:55.326Z,94270.50
2022-12-07T23:31:22.463Z,94262.47
2022-12-07T23:33:49.290Z,94262.00
2022-12-07T23:36:25.606Z,94248.38
2022-12-07T23:38:54.060Z,94267.50
2022-12-07T23:41:23.613Z,94255.78
2022-12-07T23:43:50.693Z,94254.94
2022-12-07T23:46:20.689Z,94230.22
2022-12-07T23:48:49.836Z,94221.66
2022-12-07T23:51:19.204Z,94227.16
2022-12-07T23:53:48.957Z,94244.59
2022-12-07T23:56:24.536Z,94231.97
2022-12-07T23:58:52.138Z,94230.56
